Time;durP1;ratioP1;P1;durP2;ratioP2;P2;SDS_P1;SDS_P2;PMS_P1;PMS_P2;Temp;Humidity;BMP_temperature;BMP_pressure;BME280_temperature;BME280_humidity;BME280_pressure;Samples;Min_cycle;Max_cycle;Signal;HPM_P1;HPM_P2
2021/11/29 00:01:41;;;;;;;15.88;8.85;;;;;;;-1.00;100.00;94934.28;4941164;28;20047;-64
2021/11/29 00:04:06;;;;;;;14.07;8.02;;;;;;;-0.75;100.00;94933.53;4938374;28;20114;-63
2021/11/29 00:06:33;;;;;;;14.18;9.27;;;;;;;-0.60;100.00;94928.22;4945562;28;20201;-64
2021/11/29 00:08:58;;;;;;;17.92;9.52;;;;;;;-0.57;100.00;94921.41;4946834;28;20075;-63
2021/11/29 00:11:23;;;;;;;15.80;8.10;;;;;;;-0.49;100.00;94928.56;4939375;28;20452;-62
2021/11/29 00:13:49;;;;;;;17.42;8.57;;;;;;;-0.55;100.00;94926.44;4943814;28;20054;-61
2021/11/29 00:16:15;;;;;;;16.77;9.48;;;;;;;-0.51;100.00;94930.78;4939927;28;20043;-62
2021/11/29 00:18:41;;;;;;;17.85;8.88;;;;;;;-0.50;100.00;94928.91;4944764;28;20097;-62
2021/11/29 00:21:07;;;;;;;14.82;8.50;;;;;;;-0.57;100.00;94929.47;4941512;28;20035;-60
2021/11/29 00:23:33;;;;;;;15.13;8.18;;;;;;;-0.65;100.00;94935.75;4941719;28;20039;-62
2021/11/29 00:25:58;;;;;;;17.70;9.65;;;;;;;-0.74;100.00;94938.53;4939293;28;20035;-61
2021/11/29 00:28:24;;;;;;;15.80;9.07;;;;;;;-0.50;100.00;94939.66;4938030;28;20362;-62
2021/11/29 00:30:50;;;;;;;17.25;10.00;;;;;;;-0.29;100.00;94937.63;4949780;28;20617;-61
2021/11/29 00:33:16;;;;;;;15.45;9.48;;;;;;;-0.32;100.00;94945.59;4931481;28;20035;-60
2021/11/29 00:35:41;;;;;;;19.63;9.65;;;;;;;-0.28;100.00;94946.47;4939057;28;20078;-64
2021/11/29 00:38:09;;;;;;;17.60;9.68;;;;;;;-0.28;100.00;94957.22;4947421;28;20047;-63
2021/11/29 00:40:36;;;;;;;14.63;8.77;;;;;;;-0.13;100.00;94961.88;4955556;28;20675;-62
2021/11/29 00:43:01;;;;;;;15.68;8.95;;;;;;;-0.14;100.00;94964.94;4942803;28;20054;-62
2021/11/29 00:45:27;;;;;;;16.52;9.27;;;;;;;-0.15;100.00;94960.66;4942719;28;20036;-63
2021/11/29 00:47:52;;;;;;;14.60;8.48;;;;;;;-0.17;100.00;94957.53;4938846;28;20046;-62
2021/11/29 00:50:19;;;;;;;14.35;8.98;;;;;;;-0.25;100.00;94965.41;4938058;28;20166;-63
2021/11/29 00:52:44;;;;;;;14.30;8.73;;;;;;;-0.11;100.00;94970.44;4948885;28;20047;-62
2021/11/29 00:55:12;;;;;;;15.85;8.98;;;;;;;0.03;100.00;94974.66;4941985;28;20089;-61
2021/11/29 00:57:39;;;;;;;14.18;8.38;;;;;;;0.06;100.00;94982.81;4951449;28;20046;-63
2021/11/29 01:00:08;;;;;;;14.60;8.43;;;;;;;0.19;100.00;94978.97;4940440;28;20128;-60
2021/11/29 01:02:33;;;;;;;15.13;8.23;;;;;;;0.26;100.00;94978.38;4959497;28;20040;-62
2021/11/29 01:04:59;;;;;;;14.02;8.77;;;;;;;0.28;100.00;94986.13;4957378;28;20107;-61
2021/11/29 01:07:24;;;;;;;14.98;8.10;;;;;;;0.30;100.00;94984.63;4944409;28;20046;-64
2021/11/29 01:09:50;;;;;;;11.02;7.53;;;;;;;0.23;100.00;94991.75;4952147;28;20042;-64
2021/11/29 01:12:15;;;;;;;10.88;7.88;;;;;;;0.26;100.00;94991.84;4946138;28;20042;-63
2021/11/29 01:14:41;;;;;;;10.75;7.00;;;;;;;0.25;100.00;94990.25;4949780;28;20444;-65
2021/11/29 01:17:07;;;;;;;12.15;7.60;;;;;;;0.23;100.00;94999.81;4940734;28;20043;-62
2021/11/29 01:19:33;;;;;;;11.68;7.55;;;;;;;0.15;100.00;95004.22;4946626;28;20507;-64
2021/11/29 01:21:58;;;;;;;10.88;6.88;;;;;;;0.15;100.00;94999.63;4944781;28;20051;-64
2021/11/29 01:24:24;;;;;;;11.48;7.00;;;;;;;0.18;100.00;95014.28;4944788;28;20127;-64
2021/11/29 01:26:49;;;;;;;12.43;7.80;;;;;;;0.23;100.00;94999.81;4950314;28;20500;-64
2021/11/29 01:29:14;;;;;;;11.15;7.78;;;;;;;0.15;100.00;95015.00;4945546;28;20049;-63
2021/11/29 01:31:40;;;;;;;12.23;7.50;;;;;;;0.07;100.00;95005.91;4941113;28;20051;-63
2021/11/29 01:34:05;;;;;;;12.60;7.53;;;;;;;0.04;100.00;95014.69;4939899;28;20048;-62
2021/11/29 01:36:31;;;;;;;12.32;7.40;;;;;;;0.11;100.00;95014.91;4942345;28;20668;-63
2021/11/29 01:38:56;;;;;;;11.88;7.28;;;;;;;0.09;100.00;95010.94;4950109;28;20556;-63
2021/11/29 01:41:22;;;;;;;11.25;7.22;;;;;;;0.13;100.00;95012.63;4944484;28;20047;-62
2021/11/29 01:43:48;;;;;;;12.85;7.53;;;;;;;0.14;100.00;95014.19;4950304;28;20039;-63
2021/11/29 01:46:16;;;;;;;11.90;7.30;;;;;;;0.09;100.00;95016.34;4939658;28;20098;-64
2021/11/29 01:48:43;;;;;;;12.00;7.32;;;;;;;-0.01;100.00;95012.22;4947273;28;20035;-64
2021/11/29 01:51:10;;;;;;;11.90;7.00;;;;;;;-0.02;100.00;95011.44;4936156;28;20761;-60
2021/11/29 01:53:36;;;;;;;12.32;7.70;;;;;;;-0.01;100.00;95010.31;4941555;28;20046;-62
2021/11/29 01:56:02;;;;;;;12.90;7.10;;;;;;;-0.14;100.00;95016.84;4938583;28;20149;-63
2021/11/29 01:58:32;;;;;;;12.00;7.53;;;;;;;-0.24;100.00;95026.16;4940251;28;20042;-63
2021/11/29 02:01:01;;;;;;;12.60;8.25;;;;;;;-0.35;100.00;95033.13;4949107;28;20047;-64
2021/11/29 02:03:27;;;;;;;12.32;7.70;;;;;;;-0.33;100.00;95035.47;4930075;28;20043;-62
2021/11/29 02:05:54;;;;;;;10.45;7.60;;;;;;;-0.33;100.00;95032.78;4940954;28;20588;-62
2021/11/29 02:08:21;;;;;;;12.70;7.60;;;;;;;-0.20;100.00;95034.31;4933334;28;20404;-63
2021/11/29 02:10:47;;;;;;;10.55;7.47;;;;;;;-0.08;100.00;95034.31;4942396;28;20040;-63
2021/11/29 02:13:13;;;;;;;12.63;7.75;;;;;;;-0.03;100.00;95046.78;4940849;28;20349;-63
2021/11/29 02:15:39;;;;;;;13.65;7.93;;;;;;;-0.03;100.00;95038.69;4941897;28;20050;-63
2021/11/29 02:18:05;;;;;;;10.10;6.70;;;;;;;0.01;100.00;95036.88;4938120;28;20039;-60
2021/11/29 02:20:33;;;;;;;12.52;8.43;;;;;;;-0.10;100.00;95047.34;4937738;28;20151;-61
2021/11/29 02:23:00;;;;;;;13.23;7.47;;;;;;;-0.09;100.00;95054.28;4941336;28;20508;-62
2021/11/29 02:25:26;;;;;;;10.48;7.28;;;;;;;-0.05;100.00;95059.78;4937656;28;20125;-62
2021/11/29 02:27:53;;;;;;;11.25;7.35;;;;;;;-0.08;100.00;95057.75;4952675;28;20139;-62
2021/11/29 02:30:22;;;;;;;12.02;6.60;;;;;;;-0.18;100.00;95066.28;4924910;28;20047;-64
2021/11/29 02:32:47;;;;;;;11.80;7.32;;;;;;;-0.10;100.00;95060.00;4941860;28;20054;-64
2021/11/29 02:35:14;;;;;;;11.18;7.38;;;;;;;-0.19;100.00;95060.13;4943855;28;20031;-63
2021/11/29 02:37:39;;;;;;;11.95;7.00;;;;;;;-0.17;100.00;95068.63;4945479;28;20039;-64
2021/11/29 02:40:06;;;;;;;10.77;7.18;;;;;;;-0.19;100.00;95068.19;4936427;28;20146;-62
2021/11/29 02:42:31;;;;;;;12.70;8.13;;;;;;;-0.26;100.00;95065.28;4940607;28;20547;-64
2021/11/29 02:44:57;;;;;;;10.43;7.30;;;;;;;-0.24;100.00;95079.97;4945508;28;20043;-64
2021/11/29 02:47:22;;;;;;;11.25;7.18;;;;;;;-0.20;100.00;95078.19;4936853;28;20248;-63
2021/11/29 02:49:48;;;;;;;12.77;7.35;;;;;;;-0.27;100.00;95075.28;4944031;28;20078;-64
2021/11/29 02:52:16;;;;;;;11.73;7.82;;;;;;;-0.23;100.00;95084.22;4938026;28;20039;-63
2021/11/29 02:54:43;;;;;;;11.48;6.90;;;;;;;-0.27;100.00;95087.91;4941451;28;20047;-62
2021/11/29 02:57:13;;;;;;;15.27;7.75;;;;;;;-0.29;100.00;95090.16;4944386;28;20052;-62
2021/11/29 02:59:40;;;;;;;12.73;7.75;;;;;;;-0.34;100.00;95096.56;4949573;28;20054;-63
2021/11/29 03:02:12;;;;;;;10.50;6.40;;;;;;;-0.42;100.00;95090.16;4937645;28;20047;-63
2021/11/29 03:04:39;;;;;;;13.10;8.23;;;;;;;-0.36;100.00;95095.31;4944645;28;20043;-65
2021/11/29 03:07:07;;;;;;;11.15;6.78;;;;;;;-0.30;100.00;95100.16;4938593;28;20047;-60
2021/11/29 03:09:33;;;;;;;12.13;7.03;;;;;;;-0.28;100.00;95107.88;4945336;28;20041;-63
2021/11/29 03:11:59;;;;;;;13.80;8.13;;;;;;;-0.31;100.00;95106.63;4952104;28;20046;-63
2021/11/29 03:14:25;;;;;;;12.45;7.55;;;;;;;-0.28;100.00;95110.56;4939696;28;20058;-64
2021/11/29 03:16:54;;;;;;;11.07;8.00;;;;;;;-0.26;100.00;95121.78;4946135;28;20043;-62
2021/11/29 03:19:20;;;;;;;11.32;7.45;;;;;;;-0.23;100.00;95118.44;4941506;28;20070;-63
2021/11/29 03:21:46;;;;;;;12.82;7.35;;;;;;;-0.18;100.00;95120.09;4949700;28;20043;-62
2021/11/29 03:24:11;;;;;;;11.50;7.60;;;;;;;-0.18;100.00;95120.91;4943933;28;20039;-61
2021/11/29 03:26:38;;;;;;;11.32;7.43;;;;;;;-0.15;100.00;95124.81;4941319;28;20039;-63
2021/11/29 03:29:08;;;;;;;9.20;6.57;;;;;;;-0.06;100.00;95131.66;4938272;28;20047;-61
2021/11/29 03:31:34;;;;;;;;;;;;;;;-0.08;100.00;95133.91;4949146;28;20070;-64
2021/11/29 03:34:05;;;;;;;10.70;6.93;;;;;;;-0.11;100.00;95137.28;4939406;28;20344;-62
2021/11/29 03:36:32;;;;;;;13.23;7.15;;;;;;;-0.06;100.00;95147.03;4936348;28;20055;-63
2021/11/29 03:38:59;;;;;;;9.82;6.68;;;;;;;-0.02;100.00;95147.91;4943672;28;20514;-64
2021/11/29 03:41:28;;;;;;;9.48;6.63;;;;;;;0.04;100.00;95149.28;4933268;28;20043;-63
2021/11/29 03:43:54;;;;;;;11.13;6.60;;;;;;;0.05;100.00;95155.44;4939221;28;20050;-62
2021/11/29 03:46:20;;;;;;;10.65;6.70;;;;;;;0.07;100.00;95158.56;4934525;28;20047;-62
2021/11/29 03:48:46;;;;;;;8.82;5.95;;;;;;;0.14;100.00;95164.97;4946115;28;20047;-63
2021/11/29 03:51:11;;;;;;;10.40;6.55;;;;;;;0.17;100.00;95160.81;4935318;28;20043;-61
2021/11/29 03:53:37;;;;;;;10.20;5.85;;;;;;;0.17;100.00;95152.75;4944579;28;20047;-61
2021/11/29 03:56:03;;;;;;;11.38;6.60;;;;;;;0.09;100.00;95164.41;4942623;28;20050;-61
2021/11/29 03:58:29;;;;;;;9.70;6.15;;;;;;;0.17;100.00;95160.81;4945795;28;20070;-62
2021/11/29 04:00:54;;;;;;;10.50;6.50;;;;;;;0.12;100.00;95163.75;4937612;28;20036;-62
2021/11/29 04:03:21;;;;;;;10.65;6.40;;;;;;;0.12;100.00;95169.13;4943397;28;20069;-62
2021/11/29 04:05:46;;;;;;;10.60;6.13;;;;;;;0.07;100.00;95172.81;4954640;28;20110;-62
2021/11/29 04:08:12;;;;;;;10.63;6.75;;;;;;;0.10;100.00;95171.38;4942800;28;20421;-61
2021/11/29 04:10:38;;;;;;;11.25;6.70;;;;;;;0.03;100.00;95171.91;4942428;28;20056;-62
2021/11/29 04:13:04;;;;;;;11.60;6.43;;;;;;;0.04;100.00;95176.19;4939544;28;20039;-61
2021/11/29 04:15:30;;;;;;;9.88;6.68;;;;;;;0.08;100.00;95179.78;4936717;28;20051;-62
2021/11/29 04:17:55;;;;;;;10.43;6.65;;;;;;;0.01;100.00;95181.47;4942667;28;20039;-63
2021/11/29 04:20:21;;;;;;;11.48;6.47;;;;;;;0.00;100.00;95191.47;4936272;28;20045;-63
2021/11/29 04:22:48;;;;;;;10.32;6.28;;;;;;;0.06;100.00;95197.41;4946485;28;20050;-62
2021/11/29 04:25:17;;;;;;;9.90;6.95;;;;;;;0.13;100.00;95205.72;4948507;28;20460;-63
2021/11/29 04:27:44;;;;;;;11.67;6.33;;;;;;;0.22;100.00;95214.47;4948392;28;20055;-63
2021/11/29 04:30:14;;;;;;;9.07;5.60;;;;;;;0.25;100.00;95211.06;4929219;28;20055;-63
2021/11/29 04:32:40;;;;;;;8.05;5.47;;;;;;;0.21;100.00;95212.09;4948145;28;20038;-63
2021/11/29 04:35:07;;;;;;;10.35;5.82;;;;;;;0.21;100.00;95217.47;4946107;28;20053;-60
2021/11/29 04:37:33;;;;;;;6.93;4.93;;;;;;;0.25;100.00;95224.53;4940134;28;20137;-61
2021/11/29 04:39:59;;;;;;;8.32;5.38;;;;;;;0.16;100.00;95231.94;4944961;28;20055;-63
2021/11/29 04:42:24;;;;;;;8.23;5.50;;;;;;;0.12;100.00;95228.34;4937868;28;20043;-63
2021/11/29 04:44:50;;;;;;;10.73;5.57;;;;;;;0.03;100.00;95233.06;4942512;28;20035;-63
2021/11/29 04:47:15;;;;;;;8.40;5.25;;;;;;;0.00;100.00;95237.22;4941103;28;20127;-64
2021/11/29 04:49:42;;;;;;;9.00;5.78;;;;;;;0.09;100.00;95243.28;4956442;28;20348;-64
2021/11/29 04:52:08;;;;;;;10.68;6.05;;;;;;;0.07;100.00;95250.09;4939414;28;20583;-64
2021/11/29 04:54:33;;;;;;;9.55;6.45;;;;;;;0.07;100.00;95248.19;4950922;28;20050;-61
2021/11/29 04:56:59;;;;;;;8.02;5.40;;;;;;;-0.06;100.00;95255.47;4943976;28;20039;-63
2021/11/29 04:59:24;;;;;;;11.35;6.20;;;;;;;0.03;100.00;95260.75;4926104;28;20058;-64
2021/11/29 05:01:49;;;;;;;10.05;5.95;;;;;;;-0.08;100.00;95262.31;4944206;28;20178;-62
2021/11/29 05:04:15;;;;;;;10.13;5.80;;;;;;;-0.18;100.00;95260.84;4939726;28;20031;-62
2021/11/29 05:06:40;;;;;;;9.57;6.05;;;;;;;-0.16;100.00;95263.97;4942151;28;20746;-63
2021/11/29 05:09:07;;;;;;;14.80;7.05;;;;;;;-0.10;100.00;95272.63;4934625;28;20036;-61
2021/11/29 05:11:33;;;;;;;10.73;7.10;;;;;;;-0.16;100.00;95279.31;4949434;28;20050;-62
2021/11/29 05:13:58;;;;;;;12.10;6.18;;;;;;;-0.14;100.00;95280.56;4942562;28;20048;-62
2021/11/29 05:16:24;;;;;;;12.10;6.43;;;;;;;-0.05;100.00;95280.50;4932826;28;20051;-62
2021/11/29 05:18:50;;;;;;;11.10;6.32;;;;;;;0.09;100.00;95291.75;4948439;28;20707;-63
2021/11/29 05:21:15;;;;;;;10.15;5.65;;;;;;;-0.01;100.00;95286.78;4937584;28;20035;-61
2021/11/29 05:23:41;;;;;;;11.35;6.10;;;;;;;-0.02;100.00;95295.97;4940279;28;20133;-63
2021/11/29 05:26:06;;;;;;;8.27;6.18;;;;;;;-0.03;100.00;95286.31;4930935;28;20035;-62
2021/11/29 05:28:32;;;;;;;8.82;6.05;;;;;;;0.02;100.00;95304.97;4943132;28;20093;-63
2021/11/29 05:30:57;;;;;;;10.05;6.00;;;;;;;0.02;100.00;95309.53;4938212;28;20039;-64
2021/11/29 05:33:23;;;;;;;9.93;6.10;;;;;;;-0.11;100.00;95312.22;4942295;28;20206;-63
2021/11/29 05:35:48;;;;;;;8.50;5.93;;;;;;;-0.05;100.00;95316.25;4939715;28;20689;-63
2021/11/29 05:38:14;;;;;;;9.15;5.72;;;;;;;0.01;100.00;95329.50;4944555;28;20576;-62
2021/11/29 05:40:41;;;;;;;8.85;5.47;;;;;;;-0.03;100.00;95327.47;4946381;28;20116;-63
2021/11/29 05:43:06;;;;;;;10.93;6.20;;;;;;;0.01;100.00;95332.22;4934020;28;20456;-63
2021/11/29 05:45:32;;;;;;;8.48;5.97;;;;;;;0.02;100.00;95337.25;4946202;28;20043;-63
2021/11/29 05:47:58;;;;;;;8.95;5.90;;;;;;;-0.02;100.00;95344.41;4940869;28;20140;-63
2021/11/29 05:50:24;;;;;;;9.15;5.85;;;;;;;0.01;100.00;95349.13;4940590;28;20833;-62
2021/11/29 05:52:49;;;;;;;9.90;5.85;;;;;;;-0.02;100.00;95352.47;4943544;28;20519;-63
2021/11/29 05:55:16;;;;;;;10.07;5.55;;;;;;;-0.01;100.00;95351.38;4945830;28;20043;-63
2021/11/29 05:57:42;;;;;;;8.70;6.07;;;;;;;0.01;100.00;95362.59;4940403;28;20051;-63
2021/11/29 06:00:12;;;;;;;9.63;6.13;;;;;;;-0.01;100.00;95367.53;4931521;28;20449;-61
2021/11/29 06:02:39;;;;;;;8.20;5.80;;;;;;;0.01;100.00;95367.19;4942652;28;20190;-62
2021/11/29 06:05:05;;;;;;;8.65;5.70;;;;;;;0.01;100.00;95378.75;4947632;28;20500;-60
2021/11/29 06:07:31;;;;;;;11.60;6.03;;;;;;;0.01;100.00;95373.38;4944865;28;20214;-62
2021/11/29 06:09:57;;;;;;;12.90;7.38;;;;;;;-0.01;100.00;95387.16;4937968;28;20070;-62
2021/11/29 06:12:22;;;;;;;15.15;8.32;;;;;;;-0.07;100.00;95383.09;4933085;28;20059;-63
2021/11/29 06:14:48;;;;;;;22.58;10.45;;;;;;;-0.04;100.00;95395.09;4942074;28;20047;-61
2021/11/29 06:17:13;;;;;;;20.33;10.55;;;;;;;0.01;100.00;95396.81;4935491;28;20138;-61
2021/11/29 06:19:39;;;;;;;16.10;10.45;;;;;;;0.05;100.00;95403.09;4938976;28;20070;-62
2021/11/29 06:22:04;;;;;;;18.65;10.68;;;;;;;-0.02;100.00;95401.75;4939023;28;20043;-60
2021/11/29 06:24:29;;;;;;;12.65;7.97;;;;;;;0.04;100.00;95402.31;4940783;28;20051;-62
2021/11/29 06:26:55;;;;;;;14.15;7.30;;;;;;;0.06;100.00;95402.00;4940980;28;20074;-59
2021/11/29 06:29:21;;;;;;;12.02;7.18;;;;;;;0.01;100.00;95410.28;4929232;28;20044;-62
2021/11/29 06:31:47;;;;;;;17.40;6.85;;;;;;;-0.02;100.00;95412.50;4939487;28;20050;-64
2021/11/29 06:34:12;;;;;;;19.63;6.93;;;;;;;-0.02;100.00;95417.09;4944975;28;20039;-63
2021/11/29 06:36:37;;;;;;;10.85;6.60;;;;;;;-0.05;100.00;95420.47;4934625;28;20061;-63
2021/11/29 06:39:03;;;;;;;18.35;8.32;;;;;;;-0.11;100.00;95425.25;4941817;28;20517;-60
2021/11/29 06:41:29;;;;;;;17.50;8.15;;;;;;;-0.14;100.00;95423.22;4939970;28;20062;-61
2021/11/29 06:43:55;;;;;;;15.30;8.23;;;;;;;-0.04;100.00;95433.59;4939643;28;20084;-61
2021/11/29 06:46:21;;;;;;;17.00;8.93;;;;;;;0.03;100.00;95445.72;4940757;28;20558;-61
2021/11/29 06:48:47;;;;;;;11.85;6.93;;;;;;;0.13;100.00;95448.81;4950967;28;20043;-62
2021/11/29 06:51:12;;;;;;;12.50;6.85;;;;;;;0.11;100.00;95452.94;4938278;28;20844;-62
2021/11/29 06:53:40;;;;;;;14.43;7.40;;;;;;;0.10;100.00;95454.06;4953146;28;20082;-61
2021/11/29 06:56:06;;;;;;;24.05;8.25;;;;;;;0.10;100.00;95460.22;4950463;28;20070;-61
2021/11/29 06:58:32;;;;;;;14.32;7.30;;;;;;;0.06;100.00;95463.91;4940409;28;20159;-63
2021/11/29 07:00:58;;;;;;;11.70;6.97;;;;;;;0.10;100.00;95475.59;4942573;28;20824;-63
2021/11/29 07:03:24;;;;;;;13.60;6.70;;;;;;;0.01;100.00;95475.66;4937186;28;20131;-62
2021/11/29 07:05:51;;;;;;;10.65;5.93;;;;;;;-0.04;100.00;95471.28;4933651;28;20437;-61
2021/11/29 07:08:18;;;;;;;11.07;6.25;;;;;;;-0.07;100.00;95471.94;4940948;28;20504;-63
2021/11/29 07:10:44;;;;;;;13.52;7.25;;;;;;;-0.25;100.00;95483.94;4930165;28;20570;-62
2021/11/29 07:13:12;;;;;;;12.90;7.28;;;;;;;-0.43;100.00;95485.94;4936924;28;20038;-62
2021/11/29 07:15:39;;;;;;;17.08;7.82;;;;;;;-0.60;100.00;95484.13;4938687;28;20353;-62
2021/11/29 07:18:05;;;;;;;13.38;8.00;;;;;;;-0.68;100.00;95495.72;4937730;28;20473;-62
2021/11/29 07:20:31;;;;;;;15.75;9.82;;;;;;;-0.68;100.00;95496.50;4932486;28;20047;-63
2021/11/29 07:22:57;;;;;;;18.55;8.77;;;;;;;-0.62;100.00;95505.16;4941278;28;20504;-62
2021/11/29 07:25:23;;;;;;;15.27;8.57;;;;;;;-0.63;100.00;95511.66;4942809;28;20482;-62
2021/11/29 07:27:48;;;;;;;15.40;8.35;;;;;;;-0.61;100.00;95517.50;4946452;28;20057;-63
2021/11/29 07:30:17;;;;;;;15.70;8.05;;;;;;;-0.43;100.00;95516.31;4935550;28;20043;-63
2021/11/29 07:32:43;;;;;;;12.20;7.37;;;;;;;-0.33;100.00;95517.03;4941662;28;20154;-63
2021/11/29 07:35:10;;;;;;;12.13;7.25;;;;;;;-0.09;100.00;95521.81;4936575;28;20134;-62
2021/11/29 07:37:36;;;;;;;12.18;6.95;;;;;;;-0.08;100.00;95528.78;4937466;28;20047;-63
2021/11/29 07:40:03;;;;;;;11.70;7.32;;;;;;;-0.03;100.00;95532.06;4940304;28;20157;-64
2021/11/29 07:42:29;;;;;;;11.93;6.90;;;;;;;0.07;100.00;95535.47;4940593;28;20126;-63
2021/11/29 07:44:55;;;;;;;12.52;7.18;;;;;;;0.15;100.00;95545.41;4946689;28;20142;-63
2021/11/29 07:47:22;;;;;;;19.08;7.32;;;;;;;0.32;100.00;95545.25;4939889;28;20034;-62
2021/11/29 07:49:47;;;;;;;11.27;6.95;;;;;;;0.22;100.00;95545.69;4938863;28;20051;-63
2021/11/29 07:52:14;;;;;;;12.10;6.63;;;;;;;0.24;100.00;95553.44;4936678;28;20031;-63
2021/11/29 07:54:41;;;;;;;11.40;6.65;;;;;;;0.25;100.00;95555.00;4947464;28;20043;-62
2021/11/29 07:57:07;;;;;;;13.90;7.68;;;;;;;0.31;100.00;95565.25;4938217;28;20381;-64
2021/11/29 07:59:33;;;;;;;12.20;7.13;;;;;;;0.36;100.00;95567.75;4931748;28;20075;-62
2021/11/29 08:01:59;;;;;;;12.63;7.65;;;;;;;0.43;100.00;95571.81;4932213;28;20428;-64
2021/11/29 08:04:25;;;;;;;13.00;7.75;;;;;;;0.44;100.00;95574.19;4933832;28;20688;-64
2021/11/29 08:06:51;;;;;;;13.02;7.47;;;;;;;0.43;100.00;95572.59;4936950;28;20054;-63
2021/11/29 08:09:16;;;;;;;11.45;6.95;;;;;;;0.47;100.00;95584.31;4935644;28;20063;-65
2021/11/29 08:11:42;;;;;;;11.73;7.13;;;;;;;0.50;100.00;95588.25;4947478;28;20055;-63
2021/11/29 08:14:07;;;;;;;11.60;6.80;;;;;;;0.64;100.00;95585.28;4934038;28;20420;-62
2021/11/29 08:16:33;;;;;;;10.32;7.15;;;;;;;0.71;100.00;95596.34;4936555;28;20110;-63
2021/11/29 08:18:59;;;;;;;12.43;7.03;;;;;;;0.75;100.00;95600.72;4936937;28;20449;-64
2021/11/29 08:21:24;;;;;;;10.85;6.60;;;;;;;0.77;100.00;95600.38;4933647;28;20501;-63
2021/11/29 08:23:50;;;;;;;11.63;6.63;;;;;;;0.79;100.00;95608.94;4948462;28;20054;-64
2021/11/29 08:26:15;;;;;;;9.77;6.53;;;;;;;0.78;100.00;95617.38;4935780;28;20158;-64
2021/11/29 08:28:40;;;;;;;10.57;6.35;;;;;;;0.82;100.00;95629.84;4949675;28;20408;-62
2021/11/29 08:31:06;;;;;;;14.00;7.05;;;;;;;0.73;100.00;95629.91;4931535;28;20058;-61
2021/11/29 08:33:31;;;;;;;10.45;7.10;;;;;;;0.56;100.00;95630.84;4944984;28;20035;-65
2021/11/29 08:35:57;;;;;;;12.32;7.70;;;;;;;0.50;100.00;95632.13;4945182;28;20047;-64
2021/11/29 08:38:22;;;;;;;11.80;7.53;;;;;;;0.46;100.00;95636.59;4935729;28;20539;-63
2021/11/29 08:40:49;;;;;;;14.80;8.48;;;;;;;0.58;100.00;95646.69;4945056;28;20389;-63
2021/11/29 08:43:17;;;;;;;15.20;8.73;;;;;;;0.60;100.00;95652.53;4939139;28;20035;-62
2021/11/29 08:45:46;;;;;;;17.65;10.25;;;;;;;0.54;100.00;95659.22;4944149;28;20047;-63
2021/11/29 08:48:13;;;;;;;15.87;10.07;;;;;;;0.60;100.00;95663.31;4946109;28;20050;-62
2021/11/29 08:50:43;;;;;;;15.63;10.32;;;;;;;0.63;100.00;95667.25;4948116;28;20303;-63
2021/11/29 08:53:12;;;;;;;16.08;10.15;;;;;;;0.68;100.00;95667.06;4942148;28;20051;-62
2021/11/29 08:55:38;;;;;;;14.85;9.60;;;;;;;0.66;100.00;95670.06;4951206;28;20058;-63
2021/11/29 08:58:05;;;;;;;17.92;10.15;;;;;;;0.69;100.00;95674.03;4945635;28;20039;-62
2021/11/29 09:00:32;;;;;;;17.55;9.85;;;;;;;0.80;100.00;95675.22;4934489;28;20441;-63
2021/11/29 09:02:59;;;;;;;18.00;10.60;;;;;;;0.89;100.00;95684.03;4949058;28;20046;-63
2021/11/29 09:05:25;;;;;;;15.73;9.80;;;;;;;0.98;100.00;95683.19;4930081;28;20051;-63
2021/11/29 09:07:51;;;;;;;18.15;10.35;;;;;;;1.04;100.00;95687.25;4943488;28;20102;-64
2021/11/29 09:10:17;;;;;;;17.33;10.82;;;;;;;1.03;100.00;95683.75;4933170;28;20043;-63
2021/11/29 09:12:43;;;;;;;17.20;10.77;;;;;;;1.02;100.00;95694.88;4943172;28;20442;-63
2021/11/29 09:15:12;;;;;;;18.27;11.02;;;;;;;0.91;100.00;95697.19;4936437;28;20066;-62
2021/11/29 09:17:38;;;;;;;17.60;10.93;;;;;;;0.90;100.00;95704.47;4938214;28;20043;-63
2021/11/29 09:20:07;;;;;;;20.65;11.68;;;;;;;0.96;100.00;95707.78;4931711;28;20525;-61
2021/11/29 09:22:34;;;;;;;20.37;10.27;;;;;;;0.98;100.00;95705.53;4941784;28;20122;-63
2021/11/29 09:25:00;;;;;;;18.83;11.05;;;;;;;0.84;100.00;95716.56;4942336;28;20302;-63
2021/11/29 09:27:29;;;;;;;17.85;9.90;;;;;;;0.62;100.00;95714.19;4937470;28;20074;-64
2021/11/29 09:29:54;;;;;;;19.90;11.80;;;;;;;0.25;100.00;95717.38;4940014;28;20476;-63
2021/11/29 09:32:20;;;;;;;20.42;11.77;;;;;;;0.55;100.00;95728.94;4936278;28;20035;-61
2021/11/29 09:34:47;;;;;;;15.80;10.07;;;;;;;0.76;100.00;95722.81;4944047;28;20047;-61
2021/11/29 09:37:13;;;;;;;19.20;11.45;;;;;;;0.72;100.00;95730.75;4930125;28;20433;-61
2021/11/29 09:39:39;;;;;;;16.23;9.93;;;;;;;0.58;100.00;95727.53;4936946;28;20464;-62
2021/11/29 09:42:05;;;;;;;18.30;10.32;;;;;;;0.91;100.00;95735.72;4938725;28;20071;-61
2021/11/29 09:44:30;;;;;;;19.60;11.32;;;;;;;1.16;100.00;95729.69;4941027;29;20400;-64
2021/11/29 09:46:56;;;;;;;20.92;11.35;;;;;;;1.34;100.00;95734.59;4936438;28;20058;-63
2021/11/29 09:49:23;;;;;;;17.33;10.23;;;;;;;1.41;100.00;95725.97;4937723;28;20066;-64
2021/11/29 09:51:48;;;;;;;19.40;10.43;;;;;;;1.67;100.00;95724.94;4939937;28;20043;-64
2021/11/29 09:54:14;;;;;;;16.27;9.95;;;;;;;1.64;100.00;95737.19;4929590;28;20050;-63
2021/11/29 09:56:40;;;;;;;20.50;10.85;;;;;;;1.72;100.00;95730.13;4942308;28;20047;-64
2021/11/29 09:59:06;;;;;;;17.02;9.75;;;;;;;1.71;100.00;95733.94;4923951;28;20044;-64
2021/11/29 10:01:32;;;;;;;22.30;10.85;;;;;;;1.70;100.00;95743.16;4941161;28;20085;-64
2021/11/29 10:03:58;;;;;;;21.52;10.05;;;;;;;1.77;100.00;95738.03;4942283;28;20097;-63
2021/11/29 10:06:23;;;;;;;16.80;9.98;;;;;;;1.94;100.00;95737.03;4930517;28;20954;-65
2021/11/29 10:08:50;;;;;;;18.65;11.00;;;;;;;2.18;100.00;95746.31;4941382;28;20097;-64
2021/11/29 10:11:17;;;;;;;16.50;10.35;;;;;;;1.97;100.00;95738.28;4938422;23;20131;-61
2021/11/29 10:13:45;;;;;;;22.05;10.48;;;;;;;2.24;100.00;95742.28;4917539;28;20040;-61
2021/11/29 10:16:11;;;;;;;15.50;9.65;;;;;;;2.44;99.86;95748.72;4919064;29;20139;-58
2021/11/29 10:18:37;;;;;;;17.35;8.70;;;;;;;2.52;98.39;95753.22;4922155;29;20575;-62
2021/11/29 10:21:06;;;;;;;15.70;9.63;;;;;;;2.17;100.00;95745.53;4921944;29;20401;-62
2021/11/29 10:23:37;;;;;;;16.30;9.13;;;;;;;2.41;99.26;95761.00;4919005;28;20055;-59
2021/11/29 10:26:18;;;;;;;15.73;9.32;;;;;;;2.30;97.70;95757.13;4920988;28;20175;-62
2021/11/29 10:28:55;;;;;;;15.57;9.40;;;;;;;2.48;98.39;95755.81;4920384;29;20043;-61
2021/11/29 10:31:29;;;;;;;13.43;8.20;;;;;;;2.35;100.00;95754.22;4920583;28;20046;-62
2021/11/29 10:34:07;;;;;;;14.43;8.45;;;;;;;2.07;99.66;95752.16;4932573;29;20052;-61
2021/11/29 10:36:37;;;;;;;15.02;7.80;;;;;;;2.47;97.97;95756.16;4918818;28;20140;-63
2021/11/29 10:39:20;;;;;;;13.07;7.78;;;;;;;2.83;96.29;95760.75;4933067;28;20062;-62
2021/11/29 10:41:51;;;;;;;13.93;7.97;;;;;;;3.01;94.53;95758.59;4923517;28;20052;-62
2021/11/29 10:44:19;;;;;;;13.10;7.53;;;;;;;3.21;91.19;95765.00;4919724;28;20036;-62
2021/11/29 10:46:50;;;;;;;13.32;7.47;;;;;;;3.03;87.94;95764.47;4923679;28;20035;-60
2021/11/29 10:49:19;;;;;;;11.77;6.55;;;;;;;3.41;87.45;95760.53;4916746;28;20051;-60
2021/11/29 10:51:48;;;;;;;14.05;7.10;;;;;;;2.94;88.45;95771.91;4918916;29;20066;-60
2021/11/29 10:54:23;;;;;;;9.65;6.30;;;;;;;2.43;87.61;95774.16;4915028;28;20063;-59
2021/11/29 10:56:50;;;;;;;11.05;6.15;;;;;;;2.76;85.81;95779.47;4923084;28;20477;-59
2021/11/29 10:59:19;;;;;;;10.18;6.15;;;;;;;2.19;88.34;95783.81;4909372;28;20059;-62
2021/11/29 11:01:44;;;;;;;10.80;5.80;;;;;;;2.37;89.36;95789.81;4923244;28;20126;-61
2021/11/29 11:04:13;;;;;;;14.13;5.50;;;;;;;2.26;87.38;95791.38;4918654;29;20151;-61
2021/11/29 11:06:47;;;;;;;9.33;5.07;;;;;;;2.32;86.38;95797.34;4919077;28;20071;-63
2021/11/29 11:09:17;;;;;;;10.35;5.03;;;;;;;2.41;86.93;95804.25;4915993;28;20493;-62
2021/11/29 11:11:45;;;;;;;;;;;;;;;2.57;87.97;95806.28;4936671;28;20197;-62
2021/11/29 11:14:11;;;;;;;9.80;4.75;;;;;;;2.60;84.98;95809.09;4934890;29;19965;-61
2021/11/29 11:16:45;;;;;;;8.07;5.28;;;;;;;2.35;85.99;95807.47;4926187;29;20047;-61
2021/11/29 11:19:20;;;;;;;6.47;4.07;;;;;;;2.23;86.74;95816.34;4937293;29;20035;-60
2021/11/29 11:21:46;;;;;;;9.75;4.95;;;;;;;2.28;85.72;95818.84;4943107;28;20039;-61